Time;durP1;ratioP1;P1;durP2;ratioP2;P2;SDS_P1;SDS_P2;PMS_P1;PMS_P2;Temp;Humidity;BMP_temperature;BMP_pressure;BME280_temperature;BME280_humidity;BME280_pressure;Samples;Min_cycle;Max_cycle;Signal;HPM_P1;HPM_P2
2022/02/26 00:02:04;;;;;;;49.90;27.60;;;;;;;2.01;78.55;99785.52;109147;1277;23180;-59
2022/02/26 00:04:34;;;;;;;49.20;26.30;;;;;;;2.04;78.70;99788.13;109097;1277;22397;-60
2022/02/26 00:07:03;;;;;;;52.50;28.60;;;;;;;2.08;78.75;99786.67;109047;1277;138027;-60
2022/02/26 00:09:31;;;;;;;55.50;27.20;;;;;;;2.13;78.72;99788.02;109146;1277;22431;-59
2022/02/26 00:11:59;;;;;;;45.40;26.60;;;;;;;2.19;78.75;99790.00;108990;1277;139167;-60
2022/02/26 00:14:30;;;;;;;48.00;24.80;;;;;;;2.22;78.76;99789.88;109182;1277;22615;-60
2022/02/26 00:17:00;;;;;;;42.20;22.60;;;;;;;2.30;78.93;99796.05;109192;1277;22419;-60
2022/02/26 00:19:28;;;;;;;38.60;21.40;;;;;;;2.35;78.88;99797.84;108997;1277;137965;-60
2022/02/26 00:21:57;;;;;;;40.40;20.80;;;;;;;2.42;79.04;99801.45;109052;1277;22458;-60
2022/02/26 00:24:25;;;;;;;40.90;21.10;;;;;;;2.48;79.13;99805.85;108951;1277;138485;-60
2022/02/26 00:26:53;;;;;;;34.10;18.80;;;;;;;2.54;79.27;99810.29;109140;1277;22486;-60
2022/02/26 00:29:21;;;;;;;30.10;16.20;;;;;;;2.61;79.30;99813.20;108963;1277;138074;-60
2022/02/26 00:31:49;;;;;;;34.20;17.70;;;;;;;2.65;79.21;99811.36;109089;1277;23096;-59
2022/02/26 00:34:17;;;;;;;28.90;15.30;;;;;;;2.69;79.18;99816.60;109033;1277;23401;-60
2022/02/26 00:36:45;;;;;;;34.00;17.40;;;;;;;2.72;79.07;99814.60;106011;1279;137005;-59
2022/02/26 00:39:13;;;;;;;30.30;16.60;;;;;;;2.74;78.93;99819.90;104745;1277;22722;-59
2022/02/26 00:41:41;;;;;;;32.40;16.70;;;;;;;2.75;79.03;99818.11;104939;1274;141389;-60
2022/02/26 00:44:09;;;;;;;30.10;17.30;;;;;;;2.75;78.94;99821.83;109250;1275;23270;-59
2022/02/26 00:46:38;;;;;;;31.40;17.10;;;;;;;2.75;78.92;99827.05;109337;1275;22470;-59
2022/02/26 00:51:52;;;;;;;24.30;14.70;;;;;;;2.76;78.97;99829.83;109316;1276;22456;-59
2022/02/26 00:54:20;;;;;;;27.10;14.60;;;;;;;2.76;79.01;99829.45;109279;1274;139348;-60
2022/02/26 00:56:49;;;;;;;19.80;11.20;;;;;;;2.77;78.81;99831.16;109388;1274;23269;-59
2022/02/26 00:59:18;;;;;;;19.40;11.50;;;;;;;2.77;78.63;99830.29;109360;1274;22438;-60
2022/02/26 01:01:46;;;;;;;19.60;10.20;;;;;;;2.77;78.70;99835.42;109226;1274;137944;-59
2022/02/26 01:04:15;;;;;;;17.90;9.70;;;;;;;2.76;78.53;99836.45;109393;1274;23124;-59
2022/02/26 01:06:43;;;;;;;23.00;10.50;;;;;;;2.75;78.49;99840.80;106390;1274;137803;-59
2022/02/26 01:09:11;;;;;;;20.60;10.20;;;;;;;2.73;78.34;99844.82;105082;1274;25587;-60
2022/02/26 01:11:39;;;;;;;21.30;12.00;;;;;;;2.69;78.29;99843.80;104882;1274;139307;-59
2022/02/26 01:14:06;;;;;;;17.60;10.60;;;;;;;2.68;78.38;99845.15;104925;1277;25318;-60
2022/02/26 01:16:35;;;;;;;17.50;11.70;;;;;;;2.66;78.44;99852.17;105016;1274;25549;-59
2022/02/26 01:19:03;;;;;;;16.40;9.40;;;;;;;2.64;78.55;99854.36;104878;1274;138142;-59
2022/02/26 01:21:31;;;;;;;18.10;9.20;;;;;;;2.62;78.65;99853.26;109222;1276;23242;-59
2022/02/26 01:24:00;;;;;;;13.90;8.30;;;;;;;2.60;78.55;99858.80;109287;1274;137954;-60
2022/02/26 01:26:30;;;;;;;11.80;7.40;;;;;;;2.58;78.57;99855.03;109339;1272;22455;-60
2022/02/26 01:29:00;;;;;;;12.90;7.40;;;;;;;2.53;78.52;99856.49;109384;1274;22454;-60
2022/02/26 01:31:28;;;;;;;12.70;7.40;;;;;;;2.53;78.70;99858.69;109306;1273;137898;-60
2022/02/26 01:33:56;;;;;;;13.10;7.30;;;;;;;2.53;78.64;99869.31;109282;1274;22430;-60
2022/02/26 01:36:26;;;;;;;12.20;7.00;;;;;;;2.52;78.66;99864.52;109298;1274;139105;-60
2022/02/26 01:38:54;;;;;;;13.60;6.70;;;;;;;2.52;78.75;99870.88;109364;1274;22440;-60
2022/02/26 01:41:23;;;;;;;14.20;7.30;;;;;;;2.49;78.72;99869.00;109343;1274;22514;-60
2022/02/26 01:43:51;;;;;;;13.50;7.70;;;;;;;2.47;78.72;99873.23;109305;1274;138231;-60
2022/02/26 01:46:19;;;;;;;11.90;8.20;;;;;;;2.45;78.94;99876.77;109412;1274;23744;-61
2022/02/26 01:48:47;;;;;;;18.90;10.40;;;;;;;2.39;78.88;99870.55;109241;1274;138547;-60
2022/02/26 01:51:15;;;;;;;15.00;10.50;;;;;;;2.40;78.73;99878.26;109366;1275;23255;-61
2022/02/26 01:53:43;;;;;;;18.50;11.30;;;;;;;2.38;78.73;99880.73;109240;1274;137919;-60
2022/02/26 01:56:11;;;;;;;17.60;11.40;;;;;;;2.35;78.98;99879.80;109364;1274;22768;-60
2022/02/26 01:58:39;;;;;;;21.90;12.60;;;;;;;2.37;78.93;99882.20;109394;1274;22417;-60
2022/02/26 02:01:14;;;;;;;19.60;11.10;;;;;;;2.36;78.87;99882.23;109262;1274;137995;-59
2022/02/26 02:03:43;;;;;;;15.70;9.20;;;;;;;2.36;78.80;99889.92;109357;1274;22544;-59
2022/02/26 02:06:12;;;;;;;14.50;9.20;;;;;;;2.35;78.90;99892.15;109325;1274;139091;-60
2022/02/26 02:08:59;;;;;;;16.00;8.50;;;;;;;2.35;78.90;99891.15;109381;1274;22456;-59
2022/02/26 02:11:29;;;;;;;15.20;9.10;;;;;;;2.35;79.01;99894.84;109397;1274;22492;-60
2022/02/26 02:13:57;;;;;;;16.40;7.40;;;;;;;2.33;78.92;99899.12;109283;1274;138676;-59
2022/02/26 02:16:38;;;;;;;13.20;7.30;;;;;;;2.31;79.01;99902.38;109359;1274;22444;-60
2022/02/26 02:19:07;;;;;;;13.50;7.10;;;;;;;2.31;78.88;99904.95;109181;1274;138106;-60
2022/02/26 02:21:35;;;;;;;13.00;7.50;;;;;;;2.30;78.92;99907.35;109371;1274;23406;-59
2022/02/26 02:24:03;;;;;;;12.50;7.40;;;;;;;2.29;78.71;99909.79;109257;1274;137952;-60
2022/02/26 02:26:34;;;;;;;13.90;6.90;;;;;;;2.27;78.77;99907.44;109343;1274;22481;-61
2022/02/26 02:29:03;;;;;;;14.50;7.50;;;;;;;2.24;78.86;99909.48;109346;1274;22275;-60
2022/02/26 02:31:31;;;;;;;15.90;7.50;;;;;;;2.21;78.74;99915.99;109249;1274;138554;-60
2022/02/26 02:33:59;;;;;;;12.60;6.40;;;;;;;2.20;78.77;99915.89;109369;1274;22555;-60
2022/02/26 02:36:27;;;;;;;13.10;7.00;;;;;;;2.17;78.94;99911.69;109296;1274;139408;-60
2022/02/26 02:38:55;;;;;;;9.30;5.70;;;;;;;2.17;78.96;99914.63;109344;1274;22440;-60
2022/02/26 02:41:23;;;;;;;8.80;5.30;;;;;;;2.17;79.00;99917.61;109395;1274;22410;-60
2022/02/26 02:43:51;;;;;;;9.10;5.20;;;;;;;2.16;78.96;99919.10;109242;1274;138465;-60
2022/02/26 02:46:21;;;;;;;7.90;5.20;;;;;;;2.16;78.93;99920.27;109379;1274;22463;-59
2022/02/26 02:48:49;;;;;;;7.20;4.50;;;;;;;2.14;78.98;99917.80;109318;1274;138581;-60
2022/02/26 02:51:17;;;;;;;7.10;4.70;;;;;;;2.15;78.96;99925.21;109426;1274;22467;-59
2022/02/26 02:53:44;;;;;;;8.50;5.20;;;;;;;2.12;79.12;99927.71;109285;1274;137961;-60
2022/02/26 02:56:12;;;;;;;11.30;5.00;;;;;;;2.11;79.24;99931.30;109349;1274;23269;-59
2022/02/26 02:58:40;;;;;;;7.30;4.90;;;;;;;2.10;79.35;99934.10;109339;1274;23508;-59
2022/02/26 03:01:08;;;;;;;8.00;4.70;;;;;;;2.08;79.22;99935.44;109285;1274;138373;-60
2022/02/26 03:03:36;;;;;;;8.80;4.70;;;;;;;2.07;79.20;99941.47;109394;1274;22809;-60
2022/02/26 03:06:05;;;;;;;8.40;4.20;;;;;;;2.05;79.29;99938.00;109289;1274;139520;-60
2022/02/26 03:08:33;;;;;;;6.80;4.60;;;;;;;2.00;79.34;99942.73;109381;1273;28087;-60
2022/02/26 03:11:01;;;;;;;7.50;4.30;;;;;;;1.99;79.59;99945.47;109369;1274;22469;-60
2022/02/26 03:13:31;;;;;;;7.00;4.30;;;;;;;1.97;79.61;99947.95;109245;1274;137985;-59
2022/02/26 03:15:59;;;;;;;8.10;4.40;;;;;;;1.93;79.87;99951.33;109414;1274;22441;-60
2022/02/26 03:18:48;;;;;;;7.50;4.60;;;;;;;1.90;80.05;99955.77;109297;1274;138205;-59
2022/02/26 03:21:16;;;;;;;7.30;4.30;;;;;;;1.89;80.26;99957.41;109422;1274;22567;-60
2022/02/26 03:23:44;;;;;;;7.50;4.10;;;;;;;1.85;80.38;99959.49;109311;1274;138540;-59
2022/02/26 03:26:12;;;;;;;6.20;4.20;;;;;;;1.81;80.75;99959.08;109338;1274;22478;-59
2022/02/26 03:28:40;;;;;;;7.60;4.30;;;;;;;1.79;80.78;99962.19;109397;1274;22474;-60
2022/02/26 03:31:08;;;;;;;7.40;4.90;;;;;;;1.77;80.83;99963.70;109327;1274;138890;-59
2022/02/26 03:33:36;;;;;;;6.90;4.20;;;;;;;1.74;81.02;99965.31;109382;1274;23165;-59
2022/02/26 03:36:04;;;;;;;8.70;5.00;;;;;;;1.71;81.07;99972.29;109279;1274;138194;-60
2022/02/26 03:38:32;;;;;;;6.40;4.10;;;;;;;1.69;81.46;99975.30;109391;1274;22446;-59
2022/02/26 03:41:00;;;;;;;9.60;5.60;;;;;;;1.67;81.51;99981.08;109381;1274;22488;-59
2022/02/26 03:43:29;;;;;;;8.70;5.20;;;;;;;1.65;81.67;99983.98;109314;1274;138676;-60
2022/02/26 03:45:57;;;;;;;8.30;4.50;;;;;;;1.62;81.45;99991.83;107865;1276;22661;-59
2022/02/26 03:48:25;;;;;;;7.90;4.80;;;;;;;1.59;81.76;99992.42;109198;1275;139024;-59
2022/02/26 03:50:53;;;;;;;7.10;4.70;;;;;;;1.58;81.97;99991.55;109267;1276;23624;-60
2022/02/26 03:53:20;;;;;;;9.90;4.40;;;;;;;1.54;81.88;99989.98;109374;1274;22460;-59
2022/02/26 03:55:48;;;;;;;9.30;4.70;;;;;;;1.55;81.89;99992.98;109254;1273;138056;-60
2022/02/26 03:58:17;;;;;;;7.60;5.20;;;;;;;1.51;81.96;99996.49;109429;1274;23873;-60
2022/02/26 04:00:44;;;;;;;9.60;5.20;;;;;;;1.51;82.12;100003.67;109255;1274;137314;-59
2022/02/26 04:03:13;;;;;;;8.10;6.00;;;;;;;1.48;82.17;100010.86;109405;1273;22522;-59
2022/02/26 04:05:43;;;;;;;10.20;5.60;;;;;;;1.43;82.32;100013.25;109309;1274;138087;-59
2022/02/26 04:08:11;;;;;;;10.10;5.70;;;;;;;1.37;82.55;100022.30;109380;1274;22410;-59
2022/02/26 04:10:40;;;;;;;8.60;5.40;;;;;;;1.35;82.60;100022.10;109438;1274;22424;-59
2022/02/26 04:13:07;;;;;;;8.20;5.30;;;;;;;1.33;82.66;100025.70;109222;1274;138096;-59
2022/02/26 04:15:36;;;;;;;8.10;4.90;;;;;;;1.30;82.58;100031.63;109419;1273;23320;-59
2022/02/26 04:18:04;;;;;;;9.60;5.30;;;;;;;1.28;82.71;100030.95;109291;1274;139140;-60
2022/02/26 04:20:32;;;;;;;7.70;5.50;;;;;;;1.27;82.75;100036.70;109367;1274;22446;-59
2022/02/26 04:23:01;;;;;;;12.00;5.10;;;;;;;1.26;82.73;100044.36;109402;1274;22510;-60
2022/02/26 04:25:30;;;;;;;9.10;5.60;;;;;;;1.24;83.06;100047.19;109338;1274;138822;-59
2022/02/26 04:27:57;;;;;;;7.90;5.40;;;;;;;1.23;82.85;100050.73;109308;1274;22476;-60
2022/02/26 04:30:25;;;;;;;13.10;6.50;;;;;;;1.21;82.82;100060.48;109275;1274;137952;-59
2022/02/26 04:32:53;;;;;;;10.40;6.90;;;;;;;1.18;82.90;100064.76;109437;1274;22446;-60
2022/02/26 04:35:22;;;;;;;10.00;6.10;;;;;;;1.15;83.15;100068.90;109400;1274;22450;-59
2022/02/26 04:37:52;;;;;;;10.40;5.70;;;;;;;1.10;83.10;100073.21;109262;1274;138571;-60
2022/02/26 04:40:20;;;;;;;9.00;5.60;;;;;;;1.04;83.36;100078.56;109380;1274;22530;-59
2022/02/26 04:42:49;;;;;;;9.50;5.50;;;;;;;1.02;83.48;100092.42;109311;1274;138771;-60
2022/02/26 04:45:17;;;;;;;9.00;5.30;;;;;;;1.00;83.66;100097.24;109149;1274;26575;-60
2022/02/26 04:47:45;;;;;;;11.20;6.70;;;;;;;0.99;83.77;100100.28;109205;1274;138277;-60
2022/02/26 04:50:14;;;;;;;10.30;6.50;;;;;;;0.98;83.99;100107.00;109342;1274;22511;-59
2022/02/26 04:52:42;;;;;;;9.20;6.10;;;;;;;0.99;84.38;100106.39;109411;1274;23506;-59
2022/02/26 04:55:11;;;;;;;7.20;5.30;;;;;;;0.98;84.21;100116.52;109292;1274;138900;-60
2022/02/26 04:57:39;;;;;;;11.50;5.90;;;;;;;0.95;84.35;100117.96;109383;1274;22514;-59
2022/02/26 05:00:10;;;;;;;12.50;7.50;;;;;;;0.97;84.63;100127.02;109293;1274;138421;-59
2022/02/26 05:02:38;;;;;;;9.50;6.30;;;;;;;0.94;84.44;100128.63;109379;1274;23209;-59
2022/02/26 05:05:07;;;;;;;12.50;6.90;;;;;;;0.93;84.87;100130.39;109375;1274;22433;-59
2022/02/26 05:07:35;;;;;;;10.70;6.70;;;;;;;0.93;84.63;100135.34;109281;1274;138511;-59
2022/02/26 05:10:04;;;;;;;9.60;6.40;;;;;;;0.90;84.94;100140.77;109390;1274;22591;-60
2022/02/26 05:12:51;;;;;;;13.50;7.10;;;;;;;0.88;84.71;100144.92;109309;1272;138073;-60
2022/02/26 05:15:20;;;;;;;17.30;7.90;;;;;;;0.86;84.56;100146.78;109395;1273;22433;-60
2022/02/26 05:17:47;;;;;;;10.40;6.80;;;;;;;0.86;84.98;100150.33;109306;1274;138417;-60
2022/02/26 05:20:15;;;;;;;9.80;6.80;;;;;;;0.87;85.04;100151.81;109444;1274;22495;-59
2022/02/26 05:22:43;;;;;;;11.20;7.00;;;;;;;0.88;85.13;100153.65;109447;1274;22437;-59
2022/02/26 05:25:11;;;;;;;13.60;8.00;;;;;;;0.89;85.24;100155.69;109277;1274;139161;-60
2022/02/26 05:27:40;;;;;;;10.90;7.10;;;;;;;0.87;85.20;100156.14;109456;1274;22446;-60
2022/02/26 05:30:11;;;;;;;17.20;8.80;;;;;;;0.86;85.17;100155.75;109202;1274;139008;-59
2022/02/26 05:32:39;;;;;;;15.90;8.00;;;;;;;0.88;85.38;100163.00;109441;1274;22563;-59
2022/02/26 05:35:09;;;;;;;15.60;7.80;;;;;;;0.89;85.51;100166.09;109441;1274;22378;-60
2022/02/26 05:37:37;;;;;;;13.60;7.40;;;;;;;0.89;85.67;100168.90;109317;1274;138249;-59
2022/02/26 05:40:06;;;;;;;18.80;8.30;;;;;;;0.89;85.45;100168.15;109450;1273;22407;-59
2022/02/26 05:42:34;;;;;;;11.60;7.40;;;;;;;0.92;85.79;100173.71;109312;1274;138830;-59
2022/02/26 05:45:09;;;;;;;14.00;7.50;;;;;;;0.96;85.83;100172.78;109453;1274;22450;-61
2022/02/26 05:47:37;;;;;;;13.80;7.80;;;;;;;0.97;85.86;100173.64;109337;1274;139234;-61
2022/02/26 05:50:06;;;;;;;12.90;7.50;;;;;;;0.97;85.59;100176.16;109469;1274;22451;-61
2022/02/26 05:52:34;;;;;;;12.20;7.80;;;;;;;1.02;85.79;100184.98;109462;1273;22523;-61
2022/02/26 05:55:02;;;;;;;11.50;6.80;;;;;;;1.06;85.86;100182.61;109305;1274;139524;-61
2022/02/26 05:57:30;;;;;;;13.90;7.80;;;;;;;1.10;85.72;100184.73;109437;1274;24324;-61
2022/02/26 05:59:58;;;;;;;12.90;7.30;;;;;;;1.15;85.85;100188.42;109282;1274;138833;-61
2022/02/26 06:02:26;;;;;;;13.30;7.70;;;;;;;1.20;85.54;100190.45;109412;1274;22465;-61
2022/02/26 06:04:54;;;;;;;12.10;7.80;;;;;;;1.26;85.44;100194.30;109408;1274;22501;-61
2022/02/26 06:07:22;;;;;;;12.90;7.70;;;;;;;1.28;85.63;100199.55;109316;1273;137625;-61
2022/02/26 06:09:59;;;;;;;15.80;8.60;;;;;;;1.29;85.39;100203.40;109431;1274;23224;-61
2022/02/26 06:12:27;;;;;;;15.40;8.70;;;;;;;1.29;85.09;100204.27;109324;1274;137820;-61
2022/02/26 06:15:02;;;;;;;15.90;8.70;;;;;;;1.31;85.11;100208.55;109406;1273;22529;-61
2022/02/26 06:17:35;;;;;;;15.00;9.50;;;;;;;1.35;85.33;100212.70;109445;1274;22523;-59
2022/02/26 06:20:05;;;;;;;14.70;8.10;;;;;;;1.41;85.27;100217.32;109328;1274;137531;-59
2022/02/26 06:22:33;;;;;;;17.50;8.50;;;;;;;1.46;85.17;100223.16;109476;1274;22459;-60
2022/02/26 06:25:12;;;;;;;14.10;8.30;;;;;;;1.51;84.90;100225.44;109359;1274;139450;-59
2022/02/26 06:27:41;;;;;;;17.70;8.70;;;;;;;1.55;84.86;100228.50;109433;1274;22471;-59
2022/02/26 06:30:09;;;;;;;23.10;12.70;;;;;;;1.61;84.40;100235.20;109335;1271;138170;-59
2022/02/26 06:32:38;;;;;;;21.40;11.00;;;;;;;1.66;84.63;100235.47;109419;1274;22474;-59
2022/02/26 06:35:08;;;;;;;24.60;10.10;;;;;;;1.74;84.44;100233.07;109458;1273;22576;-59
2022/02/26 06:37:35;;;;;;;16.50;7.20;;;;;;;1.81;84.09;100235.95;109334;1274;138166;-60
2022/02/26 06:40:04;;;;;;;14.30;6.80;;;;;;;1.87;83.88;100238.35;109424;1271;22415;-59
2022/02/26 06:42:32;;;;;;;20.30;11.50;;;;;;;1.94;83.48;100240.72;109306;1274;139952;-60
2022/02/26 06:45:00;;;;;;;13.50;8.90;;;;;;;2.01;83.52;100242.65;109460;1274;23291;-60
2022/02/26 06:47:30;;;;;;;12.80;7.90;;;;;;;2.09;83.17;100249.14;109399;1272;22487;-60
2022/02/26 06:49:58;;;;;;;17.20;9.20;;;;;;;2.13;82.65;100250.15;109358;1274;138641;-59
2022/02/26 06:52:28;;;;;;;16.80;7.10;;;;;;;2.19;82.24;100256.04;109422;1274;22456;-59
2022/02/26 06:54:56;;;;;;;18.50;8.80;;;;;;;2.24;81.98;100258.52;109268;1272;138132;-59
2022/02/26 06:57:41;;;;;;;15.10;9.60;;;;;;;2.30;81.13;100259.52;109413;1273;22479;-59
2022/02/26 07:00:13;;;;;;;14.40;7.90;;;;;;;2.35;80.96;100265.45;109347;1274;138304;-59
2022/02/26 07:02:41;;;;;;;12.50;7.10;;;;;;;2.42;80.53;100268.85;109402;1273;22581;-59
2022/02/26 07:05:09;;;;;;;18.90;7.50;;;;;;;2.50;79.85;100270.60;109464;1274;22538;-59
2022/02/26 07:07:38;;;;;;;13.50;8.70;;;;;;;2.57;79.29;100277.74;109364;1273;137304;-59
2022/02/26 07:10:06;;;;;;;24.10;12.60;;;;;;;2.64;78.72;100276.33;109448;1274;23203;-59
2022/02/26 07:12:39;;;;;;;20.50;9.40;;;;;;;2.71;78.05;100281.80;109344;1274;137955;-61
2022/02/26 07:15:10;;;;;;;12.10;6.60;;;;;;;2.76;77.66;100283.71;109300;1274;23166;-58
2022/02/26 07:17:40;;;;;;;9.80;5.20;;;;;;;2.81;77.27;100289.80;109369;1273;139253;-59
2022/02/26 07:20:08;;;;;;;10.80;4.90;;;;;;;2.90;75.95;100290.05;109453;1274;22435;-58
2022/02/26 07:22:37;;;;;;;10.90;4.50;;;;;;;2.96;75.09;100291.74;109395;1271;22607;-58
2022/02/26 07:25:06;;;;;;;7.70;4.60;;;;;;;3.01;74.41;100291.52;109356;1274;138106;-59
2022/02/26 07:27:34;;;;;;;8.70;4.40;;;;;;;3.06;73.61;100296.77;109469;1273;23173;-59
2022/02/26 07:30:02;;;;;;;7.50;4.60;;;;;;;3.12;73.05;100299.01;109330;1274;137650;-60
2022/02/26 07:32:30;;;;;;;12.40;5.10;;;;;;;3.18;72.53;100302.04;109465;1273;22559;-59
2022/02/26 07:34:59;;;;;;;10.00;4.40;;;;;;;3.24;72.40;100301.52;109476;1273;22476;-59
2022/02/26 07:37:27;;;;;;;8.40;4.40;;;;;;;3.32;72.09;100306.54;109322;1274;138374;-59
2022/02/26 07:39:55;;;;;;;9.00;4.30;;;;;;;3.39;71.58;100309.89;109387;1275;22564;-60
2022/02/26 07:42:23;;;;;;;9.20;4.70;;;;;;;3.45;70.77;100313.93;109345;1274;138185;-58
2022/02/26 07:44:51;;;;;;;7.70;3.50;;;;;;;3.51;70.49;100312.28;109416;1273;22294;-59
2022/02/26 07:47:19;;;;;;;9.80;4.90;;;;;;;3.56;69.73;100309.85;109457;1274;22476;-59
2022/02/26 07:49:47;;;;;;;6.10;3.40;;;;;;;3.63;69.65;100313.55;109346;1273;137996;-58
2022/02/26 07:52:30;;;;;;;11.90;3.80;;;;;;;3.69;68.27;100309.63;109418;1274;22502;-58
2022/02/26 07:54:59;;;;;;;7.20;3.60;;;;;;;3.76;67.53;100313.25;109371;1274;138324;-59
2022/02/26 07:57:29;;;;;;;9.20;3.70;;;;;;;3.84;67.16;100319.75;109444;1274;22291;-60
2022/02/26 07:59:57;;;;;;;6.00;3.40;;;;;;;3.93;66.83;100316.70;109305;1274;139273;-60
2022/02/26 08:02:25;;;;;;;8.30;3.20;;;;;;;4.00;66.39;100322.61;109493;1274;23234;-60
2022/02/26 08:04:53;;;;;;;6.40;3.60;;;;;;;4.08;65.15;100324.04;109415;1273;22529;-60
2022/02/26 08:07:21;;;;;;;6.50;3.50;;;;;;;4.14;64.57;100327.20;109304;1274;136985;-60
2022/02/26 08:09:52;;;;;;;12.70;3.60;;;;;;;4.19;63.87;100327.85;109437;1274;22497;-60
2022/02/26 08:12:20;;;;;;;7.20;3.10;;;;;;;4.21;63.78;100328.83;109318;1273;139314;-60
2022/02/26 08:14:48;;;;;;;7.50;3.50;;;;;;;4.30;63.66;100332.04;109391;1274;22615;-59
2022/02/26 08:17:16;;;;;;;8.10;3.60;;;;;;;4.36;63.26;100333.44;105730;1274;24294;-59
2022/02/26 08:19:44;;;;;;;10.30;4.10;;;;;;;4.42;62.62;100336.27;105032;1274;137535;-60
2022/02/26 08:22:12;;;;;;;8.10;3.10;;;;;;;4.45;62.29;100328.45;105112;1274;25334;-60
2022/02/26 08:24:40;;;;;;;7.70;3.70;;;;;;;4.49;61.38;100331.11;109210;1274;138165;-60
2022/02/26 08:27:09;;;;;;;7.20;3.80;;;;;;;4.51;61.58;100330.50;109408;1274;22469;-59
2022/02/26 08:29:37;;;;;;;7.40;3.60;;;;;;;4.53;61.49;100327.77;109450;1273;22519;-60
2022/02/26 08:32:06;;;;;;;9.90;3.60;;;;;;;4.56;61.65;100330.38;109341;1273;137284;-60
2022/02/26 08:34:34;;;;;;;6.70;3.00;;;;;;;4.60;60.77;100331.39;109449;1274;22244;-60
2022/02/26 08:37:02;;;;;;;10.30;2.80;;;;;;;4.62;60.25;100336.13;109363;1274;137432;-59
2022/02/26 08:39:30;;;;;;;4.40;2.10;;;;;;;4.64;60.02;100331.56;109387;1274;22452;-59
2022/02/26 08:41:59;;;;;;;4.80;2.70;;;;;;;4.66;59.58;100334.57;109313;1274;137971;-59
2022/02/26 08:44:27;;;;;;;6.40;2.80;;;;;;;4.68;58.88;100341.94;109503;1273;23310;-60
2022/02/26 08:46:55;;;;;;;8.20;2.70;;;;;;;4.70;59.12;100345.69;109428;1273;22431;-60
2022/02/26 08:49:23;;;;;;;7.80;3.20;;;;;;;4.70;59.31;100343.33;109322;1274;137631;-60
2022/02/26 08:51:51;;;;;;;6.50;2.60;;;;;;;4.73;59.07;100348.27;109473;1274;22424;-60
2022/02/26 08:54:19;;;;;;;5.80;2.60;;;;;;;4.76;58.82;100346.75;109341;1273;137925;-60
2022/02/26 08:56:48;;;;;;;6.30;1.70;;;;;;;4.79;57.61;100347.14;109431;1273;22494;-61
2022/02/26 08:59:16;;;;;;;3.60;1.80;;;;;;;4.80;57.80;100343.98;109464;1274;22510;-60
2022/02/26 09:01:44;;;;;;;3.90;1.70;;;;;;;4.82;56.84;100346.41;109368;1274;137758;-60
2022/02/26 09:04:12;;;;;;;5.90;2.30;;;;;;;4.84;57.08;100346.21;109459;1274;22437;-60
2022/02/26 09:06:41;;;;;;;7.10;2.10;;;;;;;4.88;56.89;100347.08;109332;1274;138118;-59
2022/02/26 09:09:09;;;;;;;4.30;2.10;;;;;;;4.91;56.61;100347.36;109445;1274;22458;-60
2022/02/26 09:11:38;;;;;;;4.70;2.20;;;;;;;4.95;56.42;100351.73;109457;1273;22495;-60
2022/02/26 09:14:06;;;;;;;7.60;2.50;;;;;;;4.97;55.66;100349.34;109323;1274;140349;-60
2022/02/26 09:16:34;;;;;;;5.20;2.60;;;;;;;4.98;55.69;100352.13;109457;1274;22609;-61
2022/02/26 09:19:02;;;;;;;7.90;2.30;;;;;;;5.01;55.82;100356.05;109324;1273;140283;-60
2022/02/26 09:21:30;;;;;;;6.50;2.40;;;;;;;5.03;56.01;100359.23;109441;1274;22253;-60
2022/02/26 09:23:58;;;;;;;4.40;1.80;;;;;;;5.06;55.62;100356.80;109352;1273;138338;-60
2022/02/26 09:26:26;;;;;;;4.80;2.00;;;;;;;5.10;55.32;100353.59;109414;1273;22444;-60
2022/02/26 09:28:54;;;;;;;3.50;1.70;;;;;;;5.13;55.18;100354.98;109468;1274;23222;-60
2022/02/26 09:31:22;;;;;;;5.70;2.00;;;;;;;5.13;54.52;100360.71;109312;1274;137442;-60
2022/02/26 09:33:50;;;;;;;5.30;2.00;;;;;;;5.11;54.57;100358.62;109448;1274;22539;-60
2022/02/26 09:36:18;;;;;;;4.80;1.80;;;;;;;5.10;54.09;100359.08;109312;1273;138321;-60
2022/02/26 09:38:46;;;;;;;3.50;1.20;;;;;;;5.09;54.24;100359.61;109472;1274;22647;-60
2022/02/26 09:41:17;;;;;;;2.10;1.20;;;;;;;5.11;53.30;100363.20;109435;1272;22451;-59
2022/02/26 09:43:46;;;;;;;9.10;1.80;;;;;;;5.13;53.16;100362.13;109363;1274;138332;-59
2022/02/26 09:46:17;;;;;;;5.10;1.70;;;;;;;5.16;52.97;100363.39;109444;1273;22496;-61
2022/02/26 09:48:45;;;;;;;3.20;1.20;;;;;;;5.18;53.01;100361.70;109283;1274;139055;-60
2022/02/26 09:51:13;;;;;;;4.00;1.40;;;;;;;5.23;52.81;100359.79;109431;1272;22468;-60
2022/02/26 09:53:42;;;;;;;3.80;1.50;;;;;;;5.25;52.66;100361.25;109451;1273;22451;-59
2022/02/26 09:56:10;;;;;;;3.20;1.50;;;;;;;5.36;52.49;100371.01;109309;1274;137590;-60
2022/02/26 09:58:39;;;;;;;3.40;1.40;;;;;;;5.40;51.78;100373.48;109456;1274;22673;-60
2022/02/26 10:01:07;;;;;;;4.90;1.40;;;;;;;5.43;51.54;100379.10;109334;1274;137668;-60
2022/02/26 10:03:36;;;;;;;6.80;2.30;;;;;;;5.45;51.70;100381.02;109471;1273;23806;-60
2022/02/26 10:06:11;;;;;;;2.00;1.40;;;;;;;5.49;51.65;100383.14;109373;1273;137254;-60
2022/02/26 10:09:00;;;;;;;4.40;1.60;;;;;;;5.52;51.33;100383.06;109448;1273;22766;-59
2022/02/26 10:11:30;;;;;;;4.00;1.40;;;;;;;5.52;51.59;100383.10;109438;1274;23416;-60
2022/02/26 10:13:59;;;;;;;4.30;1.90;;;;;;;5.54;51.74;100384.23;109323;1274;139903;-60
2022/02/26 10:16:51;;;;;;;3.50;1.40;;;;;;;5.58;51.00;100385.84;109426;1273;23682;-60
2022/02/26 10:19:26;;;;;;;7.20;2.00;;;;;;;5.64;50.48;100388.80;109227;1274;137867;-60
2022/02/26 10:21:59;;;;;;;4.00;1.40;;;;;;;5.68;50.14;100391.67;109468;1273;22626;-59
2022/02/26 10:24:31;;;;;;;3.60;1.70;;;;;;;5.73;50.45;100392.98;109369;1274;138816;-59
2022/02/26 10:27:05;;;;;;;6.70;1.30;;;;;;;5.79;48.94;100394.60;109403;1274;22447;-60
2022/02/26 10:29:37;;;;;;;1.10;0.90;;;;;;;5.83;48.97;100400.31;109424;1273;22545;-60
2022/02/26 10:32:06;;;;;;;1.90;0.90;;;;;;;5.86;48.04;100398.74;109305;1274;138442;-60
2022/02/26 10:34:35;;;;;;;2.50;1.00;;;;;;;5.87;47.43;100397.64;109274;1274;22504;-60
2022/02/26 10:37:19;;;;;;;1.50;0.90;;;;;;;5.93;47.81;100405.18;109355;1273;137272;-60
2022/02/26 10:39:51;;;;;;;3.00;1.30;;;;;;;5.98;48.18;100410.40;109407;1274;22519;-60
2022/02/26 10:42:21;;;;;;;3.60;1.30;;;;;;;6.01;47.76;100400.45;109329;1273;138159;-60
2022/02/26 10:45:01;;;;;;;1.90;1.00;;;;;;;6.06;47.64;100398.38;109436;1274;23618;-60
2022/02/26 10:47:30;;;;;;;3.40;1.10;;;;;;;6.08;47.72;100398.58;105342;1274;22614;-60
2022/02/26 10:49:58;;;;;;;4.50;1.40;;;;;;;6.12;47.84;100398.09;109336;1273;137778;-60
2022/02/26 10:52:33;;;;;;;2.30;1.00;;;;;;;6.17;47.91;100394.14;109475;1273;22385;-60
2022/02/26 10:55:06;;;;;;;3.90;1.60;;;;;;;6.24;46.34;100401.88;109304;1273;137581;-60
2022/02/26 10:57:34;;;;;;;3.00;1.00;;;;;;;6.26;45.88;100402.45;109433;1274;23146;-60
2022/02/26 11:00:02;;;;;;;4.40;1.20;;;;;;;6.26;45.06;100408.78;109324;1274;138758;-60
2022/02/26 11:02:31;;;;;;;2.90;1.50;;;;;;;6.23;45.26;100404.88;109248;1274;22440;-60
2022/02/26 11:04:59;;;;;;;5.50;1.70;;;;;;;6.18;46.41;100398.73;109463;1274;22546;-60
2022/02/26 11:07:27;;;;;;;3.50;1.20;;;;;;;6.22;46.45;100407.20;109348;1274;138133;-60
2022/02/26 11:09:55;;;;;;;2.40;1.20;;;;;;;6.28;46.15;100407.63;109234;1274;22551;-60
2022/02/26 11:12:27;;;;;;;1.10;0.80;;;;;;;6.31;46.23;100407.51;109191;1274;138225;-60
2022/02/26 11:15:00;;;;;;;6.00;0.90;;;;;;;6.33;44.52;100409.67;109273;1274;200734;-60
2022/02/26 11:19:11;;;;;;;2.90;0.70;;;;;;;6.34;44.53;100410.34;101392;1311;545329;-60
2022/02/26 11:21:39;;;;;;;1.70;0.60;;;;;;;6.33;44.08;100413.55;103603;1291;24041;-60
2022/02/26 11:24:08;;;;;;;0.60;0.60;;;;;;;6.35;43.09;100411.31;103663;1290;138135;-59
2022/02/26 11:26:36;;;;;;;0.80;0.80;;;;;;;6.36;43.55;100415.19;103636;1290;26626;-58
2022/02/26 11:29:05;;;;;;;1.50;0.70;;;;;;;6.36;43.64;100413.20;103666;1289;22586;-59
2022/02/26 11:31:41;;;;;;;1.80;0.90;;;;;;;6.39;43.42;100417.11;103670;1290;136695;-60
2022/02/26 11:34:09;;;;;;;2.10;1.50;;;;;;;6.40;44.00;100410.95;108151;1285;23535;-59